createdAt,value
2023-05-15T00:01:20.173Z,16.94
2023-05-15T00:03:48.286Z,16.90
2023-05-15T00:06:17.462Z,16.88
2023-05-15T00:08:47.010Z,16.84
2023-05-15T00:11:14.358Z,16.83
2023-05-15T00:13:44.573Z,16.82
2023-05-15T00:16:12.204Z,16.79
2023-05-15T00:18:39.829Z,16.79
2023-05-15T00:21:07.373Z,16.73
2023-05-15T00:23:36.484Z,16.69
2023-05-15T00:26:03.990Z,16.67
2023-05-15T00:28:31.359Z,16.66
2023-05-15T00:30:58.713Z,16.65
2023-05-15T00:33:26.489Z,16.63
2023-05-15T00:35:53.775Z,16.62
2023-05-15T00:38:21.229Z,16.59
2023-05-15T00:40:48.712Z,16.57
2023-05-15T00:43:16.134Z,16.54
2023-05-15T00:45:43.605Z,16.51
2023-05-15T00:48:11.174Z,16.50
2023-05-15T00:50:41.606Z,16.50
2023-05-15T00:53:09.253Z,16.49
2023-05-15T00:55:36.934Z,16.48
2023-05-15T00:58:04.386Z,16.48
2023-05-15T01:00:33.119Z,16.49
2023-05-15T01:03:01.978Z,16.50
2023-05-15T01:05:30.312Z,16.53
2023-05-15T01:08:08.844Z,16.54
2023-05-15T01:10:36.341Z,16.51
2023-05-15T01:13:04.015Z,16.50
2023-05-15T01:15:31.582Z,16.47
2023-05-15T01:17:59.134Z,16.45
2023-05-15T01:20:27.457Z,16.42
2023-05-15T01:23:09.833Z,16.39
2023-05-15T01:25:57.379Z,16.35
2023-05-15T01:28:49.096Z,16.30
2023-05-15T01:31:19.380Z,16.29
2023-05-15T01:33:47.752Z,16.30
2023-05-15T01:36:19.057Z,16.29
2023-05-15T01:38:52.101Z,16.25
2023-05-15T01:41:22.384Z,16.21
2023-05-15T01:43:55.667Z,16.20
2023-05-15T01:46:23.859Z,16.19
2023-05-15T01:48:51.421Z,16.18
2023-05-15T01:51:19.319Z,16.17
2023-05-15T01:53:46.874Z,16.15
2023-05-15T01:56:15.011Z,16.14
2023-05-15T01:58:42.675Z,16.12
2023-05-15T02:01:10.034Z,16.11
2023-05-15T02:03:37.729Z,16.05
2023-05-15T02:06:06.010Z,16.02
2023-05-15T02:08:33.562Z,16.00
2023-05-15T02:11:01.562Z,15.97
2023-05-15T02:13:29.506Z,15.95
2023-05-15T02:15:57.156Z,15.96
2023-05-15T02:18:28.542Z,15.97
2023-05-15T02:20:58.191Z,15.96
2023-05-15T02:23:25.638Z,15.97
2023-05-15T02:26:26.717Z,15.97
2023-05-15T02:29:14.211Z,15.97
2023-05-15T02:31:51.558Z,15.97
2023-05-15T02:34:42.965Z,15.92
2023-05-15T02:37:13.644Z,15.92
2023-05-15T02:39:42.870Z,15.91
2023-05-15T02:42:10.424Z,15.91
2023-05-15T02:44:38.764Z,15.91
2023-05-15T02:47:06.340Z,15.94
2023-05-15T02:49:34.375Z,15.96
2023-05-15T02:52:01.882Z,15.99
2023-05-15T02:54:29.602Z,16.03
2023-05-15T02:56:57.172Z,16.07
2023-05-15T02:59:24.733Z,16.12
2023-05-15T03:01:52.365Z,16.15
2023-05-15T03:04:20.735Z,16.19
2023-05-15T03:06:48.620Z,16.21
2023-05-15T03:09:16.684Z,16.23
2023-05-15T03:11:44.198Z,16.22
2023-05-15T03:14:11.806Z,16.22
2023-05-15T03:16:39.503Z,16.24
2023-05-15T03:19:07.058Z,16.23
2023-05-15T03:21:35.203Z,16.24
2023-05-15T03:24:02.984Z,16.25
2023-05-15T03:26:30.571Z,16.25
2023-05-15T03:28:58.123Z,16.27
2023-05-15T03:31:25.889Z,16.29
2023-05-15T03:33:53.800Z,16.32
2023-05-15T03:36:22.677Z,16.33
2023-05-15T03:38:50.357Z,16.35
2023-05-15T03:41:17.902Z,16.35
2023-05-15T03:43:45.423Z,16.39
2023-05-15T03:46:13.173Z,16.40
2023-05-15T03:48:41.942Z,16.42
2023-05-15T03:51:09.466Z,16.45
2023-05-15T03:53:37.502Z,16.48
2023-05-15T03:56:05.563Z,16.52
2023-05-15T03:58:33.148Z,16.56
2023-05-15T04:01:00.734Z,16.60
2023-05-15T04:03:28.354Z,16.65
2023-05-15T04:05:55.896Z,16.71
2023-05-15T04:08:23.478Z,16.78
2023-05-15T04:10:51.945Z,16.87
2023-05-15T04:13:19.440Z,16.94
2023-05-15T04:15:47.633Z,17.02
2023-05-15T04:18:16.440Z,17.09
2023-05-15T04:20:43.938Z,17.17
2023-05-15T04:23:11.590Z,17.24
2023-05-15T04:25:39.721Z,17.33
2023-05-15T04:28:07.510Z,17.41
2023-05-15T04:30:36.096Z,17.48
2023-05-15T04:33:04.267Z,17.57
2023-05-15T04:35:31.837Z,17.67
2023-05-15T04:37:59.549Z,17.75
2023-05-15T04:40:27.038Z,17.79
2023-05-15T04:42:54.553Z,17.84
2023-05-15T04:45:22.026Z,17.89
2023-05-15T04:47:49.649Z,17.95
2023-05-15T04:50:17.164Z,17.98
2023-05-15T04:52:45.763Z,18.02
2023-05-15T04:55:14.214Z,18.08
2023-05-15T04:57:41.784Z,18.12
2023-05-15T05:00:14.408Z,18.17
2023-05-15T05:02:43.576Z,18.24
2023-05-15T05:05:11.175Z,18.30
2023-05-15T05:07:39.594Z,18.37
2023-05-15T05:10:08.050Z,18.43
2023-05-15T05:12:36.268Z,18.48
2023-05-15T05:15:04.213Z,18.54
2023-05-15T05:17:32.655Z,18.59
2023-05-15T05:20:00.252Z,18.64
2023-05-15T05:22:27.859Z,18.71
2023-05-15T05:24:56.351Z,18.75
2023-05-15T05:27:23.880Z,18.81
2023-05-15T05:29:53.474Z,18.87
2023-05-15T05:32:21.097Z,18.95
2023-05-15T05:34:48.648Z,19.01
2023-05-15T05:37:16.270Z,19.09
2023-05-15T05:39:43.748Z,19.15
2023-05-15T05:42:11.251Z,19.22
2023-05-15T05:44:39.090Z,19.28
2023-05-15T05:47:06.730Z,19.33
2023-05-15T05:49:34.528Z,19.41
2023-05-15T05:52:07.983Z,19.52
2023-05-15T05:54:35.531Z,19.58
2023-05-15T05:57:03.115Z,19.63
2023-05-15T05:59:31.239Z,19.68
2023-05-15T06:01:58.842Z,19.78
2023-05-15T06:04:26.860Z,19.84
2023-05-15T06:06:54.812Z,19.93
2023-05-15T06:09:22.940Z,19.99
2023-05-15T06:11:50.800Z,20.05
2023-05-15T06:14:19.396Z,20.07
2023-05-15T06:16:47.146Z,20.14
2023-05-15T06:19:14.978Z,20.19
2023-05-15T06:21:42.689Z,20.24
2023-05-15T06:24:10.234Z,20.29
2023-05-15T06:26:37.764Z,20.37
2023-05-15T06:29:05.373Z,20.50
2023-05-15T06:31:33.092Z,20.63
2023-05-15T06:34:02.458Z,20.77
2023-05-15T06:36:30.521Z,20.98
2023-05-15T19:27:13.489Z,20.46
2023-05-15T19:29:42.890Z,20.49
2023-05-15T19:32:10.651Z,20.49
2023-05-15T19:34:38.183Z,20.45
2023-05-15T19:37:06.038Z,20.45
2023-05-15T19:39:33.902Z,20.42
2023-05-15T19:42:01.550Z,20.41
2023-05-15T19:44:29.068Z,20.39
2023-05-15T19:46:56.598Z,20.40
2023-05-15T19:49:24.091Z,20.39
2023-05-15T19:51:52.104Z,20.37
2023-05-15T19:54:19.591Z,20.35
2023-05-15T19:56:46.997Z,20.34
2023-05-15T19:59:14.733Z,20.33
2023-05-15T20:01:42.378Z,20.31
2023-05-15T20:04:09.937Z,20.30
2023-05-15T20:06:38.147Z,20.31
2023-05-15T20:09:06.053Z,20.32
2023-05-15T20:11:34.208Z,20.31
2023-05-15T20:14:01.973Z,20.30
2023-05-15T20:16:29.786Z,20.27
2023-05-15T20:18:57.439Z,20.24
2023-05-15T20:21:25.291Z,20.24
2023-05-15T20:23:52.767Z,20.26
2023-05-15T20:26:22.343Z,20.27
2023-05-15T20:28:49.975Z,20.28
2023-05-15T20:31:17.679Z,20.27
2023-05-15T20:33:45.231Z,20.26
2023-05-15T20:36:13.716Z,20.25
2023-05-15T20:38:41.616Z,20.24
2023-05-15T20:41:09.101Z,20.22
2023-05-15T20:43:39.058Z,20.20
2023-05-15T20:46:08.904Z,20.18
2023-05-15T20:48:36.565Z,20.15
2023-05-15T20:51:04.205Z,20.13
2023-05-15T20:53:31.724Z,20.08
2023-05-15T20:55:59.867Z,20.05
2023-05-15T20:58:27.692Z,20.02
2023-05-15T21:00:55.613Z,20.00
2023-05-15T21:03:23.399Z,19.99
2023-05-15T21:05:51.225Z,19.98
2023-05-15T21:08:19.522Z,19.97
2023-05-15T21:10:51.266Z,19.97
2023-05-15T21:13:18.860Z,19.95
2023-05-15T21:15:46.318Z,19.91
2023-05-15T21:18:13.918Z,19.84
2023-05-15T21:20:41.872Z,19.76
2023-05-15T21:23:09.410Z,19.70
2023-05-15T21:25:37.784Z,19.68
2023-05-15T21:28:05.401Z,19.65
2023-05-15T21:30:33.236Z,19.62
2023-05-15T21:33:00.899Z,19.62
2023-05-15T21:35:29.110Z,19.58
2023-05-15T21:37:56.779Z,19.54
2023-05-15T21:40:24.241Z,19.48
2023-05-15T21:42:52.653Z,19.44
2023-05-15T21:45:20.836Z,19.42
2023-05-15T21:47:48.605Z,19.42
2023-05-15T21:50:16.289Z,19.43
2023-05-15T21:52:43.838Z,19.42
2023-05-15T21:55:11.506Z,19.41
2023-05-15T21:57:39.173Z,19.41
2023-05-15T22:00:08.368Z,19.42
2023-05-15T22:02:36.200Z,19.43
2023-05-15T22:05:03.953Z,19.42
2023-05-15T22:07:31.609Z,19.40
2023-05-15T22:09:59.231Z,19.37
2023-05-15T22:12:26.807Z,19.37
2023-05-15T22:14:58.973Z,19.37
2023-05-15T22:17:29.310Z,19.34
2023-05-15T22:20:07.317Z,19.33
2023-05-15T22:22:35.623Z,19.32
2023-05-15T22:25:04.357Z,19.30
2023-05-15T22:27:33.021Z,19.29
2023-05-15T22:30:01.010Z,19.26
2023-05-15T22:32:28.694Z,19.26
2023-05-15T22:34:56.291Z,19.25
2023-05-15T22:37:23.974Z,19.23
2023-05-15T22:39:51.607Z,19.22
2023-05-15T22:42:19.385Z,19.22
2023-05-15T22:44:46.930Z,19.23
2023-05-15T22:47:14.701Z,19.22
2023-05-15T22:49:42.154Z,19.24
2023-05-15T22:52:12.145Z,19.24
2023-05-15T22:54:41.084Z,19.24
2023-05-15T22:57:09.008Z,19.25
2023-05-15T22:59:36.779Z,19.26
2023-05-15T23:02:04.401Z,19.25
2023-05-15T23:04:31.950Z,19.24
2023-05-15T23:06:59.502Z,19.24
2023-05-15T23:09:27.343Z,19.22
2023-05-15T23:11:54.894Z,19.21
2023-05-15T23:14:22.519Z,19.18
2023-05-15T23:16:50.046Z,19.16
2023-05-15T23:19:17.700Z,19.13
2023-05-15T23:21:45.538Z,19.14
2023-05-15T23:24:12.983Z,19.11
2023-05-15T23:26:40.754Z,19.10
2023-05-15T23:29:08.640Z,19.06
2023-05-15T23:31:36.335Z,19.04
2023-05-15T23:34:04.026Z,19.02
2023-05-15T23:36:31.629Z,19.00
2023-05-15T23:38:59.062Z,18.99
2023-05-15T23:41:26.794Z,18.98
2023-05-15T23:43:54.409Z,18.97
2023-05-15T23:46:22.009Z,18.92
2023-05-15T23:48:49.552Z,18.85
2023-05-15T23:51:17.282Z,18.78
2023-05-15T23:53:44.858Z,18.75
2023-05-15T23:56:12.400Z,18.70
2023-05-15T23:58:40.148Z,18.68
